createdAt,value
2023-04-08T00:00:08.830Z,8.00
2023-04-08T00:02:35.424Z,7.99
2023-04-08T00:05:02.142Z,7.98
2023-04-08T00:07:29.077Z,7.95
2023-04-08T00:09:55.604Z,7.93
2023-04-08T00:12:22.152Z,7.96
2023-04-08T00:14:48.676Z,7.97
2023-04-08T00:17:15.096Z,7.98
2023-04-08T00:19:41.513Z,7.95
2023-04-08T00:22:08.311Z,7.95
2023-04-08T00:24:34.787Z,7.89
2023-04-08T00:27:01.210Z,7.86
2023-04-08T00:29:27.623Z,7.79
2023-04-08T00:31:54.530Z,7.78
2023-04-08T00:34:21.102Z,7.72
2023-04-08T00:36:47.647Z,7.66
2023-04-08T00:39:14.606Z,7.67
2023-04-08T00:41:41.152Z,7.68
2023-04-08T00:44:07.803Z,7.68
2023-04-08T00:46:37.253Z,7.65
2023-04-08T00:49:04.398Z,7.62
2023-04-08T00:51:36.348Z,7.58
2023-04-08T00:54:04.912Z,7.54
2023-04-08T00:56:32.848Z,7.55
2023-04-08T00:59:00.661Z,7.50
2023-04-08T01:01:43.863Z,7.47
2023-04-08T01:04:27.490Z,7.44
2023-04-08T01:07:17.920Z,7.46
2023-04-08T01:09:56.343Z,7.45
2023-04-08T01:12:29.949Z,7.39
2023-04-08T01:15:05.891Z,7.39
2023-04-08T01:17:33.936Z,7.40
2023-04-08T01:20:02.760Z,7.40
2023-04-08T01:22:48.470Z,7.40
2023-04-08T01:25:29.960Z,7.38
2023-04-08T01:27:58.424Z,7.35
2023-04-08T01:30:26.079Z,7.30
2023-04-08T01:32:56.476Z,7.30
2023-04-08T01:35:23.968Z,7.29
2023-04-08T01:37:51.634Z,7.26
2023-04-08T01:40:19.849Z,7.22
2023-04-08T01:42:49.629Z,7.21
2023-04-08T01:45:16.884Z,7.20
2023-04-08T01:47:47.523Z,7.15
2023-04-08T01:50:15.616Z,7.15
2023-04-08T01:52:46.167Z,7.16
2023-04-08T01:55:12.741Z,7.14
2023-04-08T01:57:40.909Z,7.16
2023-04-08T02:00:14.336Z,7.15
2023-04-08T02:02:43.061Z,7.13
2023-04-08T02:05:09.826Z,7.11
2023-04-08T02:07:36.610Z,7.08
2023-04-08T02:10:03.750Z,7.09
2023-04-08T02:12:30.507Z,7.10
2023-04-08T02:14:57.856Z,7.11
2023-04-08T02:17:45.541Z,7.11
2023-04-08T02:20:31.072Z,7.13
2023-04-08T02:23:09.127Z,7.10
2023-04-08T02:25:38.869Z,7.11
2023-04-08T02:28:09.517Z,7.09
2023-04-08T02:30:37.266Z,7.07
2023-04-08T02:33:05.609Z,7.08
2023-04-08T02:35:32.797Z,7.08
2023-04-08T02:37:59.404Z,7.07
2023-04-08T02:40:30.277Z,7.06
2023-04-08T02:42:57.050Z,7.07
2023-04-08T02:45:27.660Z,7.06
2023-04-08T02:47:54.224Z,7.05
2023-04-08T02:50:20.740Z,7.05
2023-04-08T02:52:47.197Z,7.04
2023-04-08T02:55:13.595Z,7.00
2023-04-08T02:57:41.983Z,6.96
2023-04-08T03:00:09.688Z,6.94
2023-04-08T03:02:36.543Z,6.87
2023-04-08T03:05:04.292Z,6.84
2023-04-08T03:07:30.975Z,6.82
2023-04-08T03:09:57.546Z,6.82
2023-04-08T03:12:24.020Z,6.79
2023-04-08T03:14:50.772Z,6.78
2023-04-08T03:17:17.231Z,6.76
2023-04-08T03:19:43.657Z,6.76
2023-04-08T03:22:10.204Z,6.73
2023-04-08T03:24:37.050Z,6.72
2023-04-08T03:27:03.800Z,6.73
2023-04-08T03:29:32.999Z,6.74
2023-04-08T03:31:59.647Z,6.72
2023-04-08T03:34:26.222Z,6.65
2023-04-08T03:36:52.699Z,6.65
2023-04-08T03:39:19.432Z,6.66
2023-04-08T03:41:45.834Z,6.64
2023-04-08T03:44:12.298Z,6.61
2023-04-08T03:46:38.718Z,6.56
2023-04-08T03:49:05.302Z,6.56
2023-04-08T03:51:31.927Z,6.52
2023-04-08T03:53:58.420Z,6.48
2023-04-08T03:56:25.595Z,6.45
2023-04-08T03:58:52.259Z,6.41
2023-04-08T04:01:18.885Z,6.40
2023-04-08T04:03:45.443Z,6.34
2023-04-08T04:06:12.144Z,6.31
2023-04-08T04:08:38.536Z,6.32
2023-04-08T04:11:04.972Z,6.30
2023-04-08T04:13:31.344Z,6.25
2023-04-08T04:15:58.004Z,6.22
2023-04-08T04:18:24.407Z,6.22
2023-04-08T04:20:50.956Z,6.19
2023-04-08T04:23:17.363Z,6.20
2023-04-08T04:25:44.399Z,6.19
2023-04-08T04:28:10.890Z,6.14
2023-04-08T04:30:40.545Z,6.11
2023-04-08T04:33:07.430Z,6.07
2023-04-08T04:35:34.199Z,6.04
2023-04-08T04:38:01.591Z,6.00
2023-04-08T04:40:28.082Z,5.99
2023-04-08T04:42:54.504Z,5.97
2023-04-08T04:45:20.955Z,5.96
2023-04-08T04:47:47.477Z,5.96
2023-04-08T04:50:13.884Z,5.96
2023-04-08T04:52:41.388Z,5.97
2023-04-08T04:55:08.230Z,5.91
2023-04-08T04:57:34.670Z,5.85
2023-04-08T05:00:02.273Z,5.84
2023-04-08T05:02:30.813Z,5.81
2023-04-08T05:04:57.380Z,5.76
2023-04-08T05:07:23.943Z,5.73
2023-04-08T05:09:50.712Z,5.66
2023-04-08T05:12:17.238Z,5.62
2023-04-08T05:14:43.699Z,5.56
2023-04-08T05:17:10.134Z,5.51
2023-04-08T05:19:36.533Z,5.46
2023-04-08T05:22:03.011Z,5.42
2023-04-08T05:24:29.419Z,5.39
2023-04-08T05:26:57.797Z,5.37
2023-04-08T05:29:24.268Z,5.33
2023-04-08T05:31:51.073Z,5.26
2023-04-08T05:34:22.793Z,5.18
2023-04-08T05:36:53.449Z,5.15
2023-04-08T05:39:20.372Z,5.12
2023-04-08T05:41:46.894Z,5.14
2023-04-08T05:44:14.105Z,5.12
2023-04-08T05:46:40.574Z,5.13
2023-04-08T05:49:07.100Z,5.13
2023-04-08T05:51:33.503Z,5.11
2023-04-08T05:53:59.863Z,5.10
2023-04-08T05:56:26.500Z,5.10
2023-04-08T05:58:52.952Z,5.09
2023-04-08T06:01:19.387Z,5.08
2023-04-08T06:03:46.087Z,5.10
2023-04-08T06:06:12.678Z,5.11
2023-04-08T06:08:39.161Z,5.15
2023-04-08T06:11:05.720Z,5.16
2023-04-08T06:13:32.387Z,5.18
2023-04-08T06:15:59.614Z,5.21
2023-04-08T06:18:26.143Z,5.22
2023-04-08T06:20:52.550Z,5.21
2023-04-08T06:23:18.981Z,5.21
2023-04-08T06:25:45.412Z,5.27
2023-04-08T06:28:11.813Z,5.30
2023-04-08T06:30:38.261Z,5.31
2023-04-08T06:33:04.767Z,5.33
2023-04-08T06:35:32.627Z,5.34
2023-04-08T06:37:59.193Z,5.37
2023-04-08T06:40:25.807Z,5.40
2023-04-08T06:42:52.289Z,5.41
2023-04-08T06:45:18.661Z,5.43
2023-04-08T06:47:45.357Z,5.47
2023-04-08T06:50:11.991Z,5.49
2023-04-08T06:52:38.659Z,5.55
2023-04-08T06:55:05.668Z,5.54
2023-04-08T06:57:32.096Z,5.56
2023-04-08T07:00:00.544Z,5.60
2023-04-08T07:02:27.198Z,5.64
2023-04-08T07:04:53.689Z,5.70
2023-04-08T07:07:20.225Z,5.72
2023-04-08T07:09:46.840Z,5.77
2023-04-08T07:12:13.500Z,5.84
2023-04-08T07:14:39.967Z,5.89
2023-04-08T07:17:06.746Z,5.96
2023-04-08T07:19:33.593Z,6.04
2023-04-08T07:22:01.010Z,6.10
2023-04-08T07:24:27.516Z,6.13
2023-04-08T07:26:56.739Z,6.17
2023-04-08T07:29:23.207Z,6.27
2023-04-08T07:31:49.569Z,6.34
2023-04-08T07:34:16.606Z,6.38
2023-04-08T07:36:43.234Z,6.40
2023-04-08T07:39:09.663Z,6.45
2023-04-08T07:41:36.558Z,6.57
2023-04-08T07:44:02.997Z,6.65
2023-04-08T07:46:29.537Z,6.71
2023-04-08T07:48:55.951Z,6.82
2023-04-08T07:51:22.479Z,6.88
2023-04-08T07:53:49.003Z,6.86
2023-04-08T07:56:16.328Z,6.95
2023-04-08T07:58:43.154Z,7.00
2023-04-08T08:01:16.589Z,7.08
2023-04-08T08:03:43.068Z,7.15
2023-04-08T08:06:11.749Z,7.17
2023-04-08T08:08:38.205Z,7.26
2023-04-08T08:11:04.689Z,7.39
2023-04-08T08:13:31.303Z,7.46
2023-04-08T08:15:57.856Z,7.52
2023-04-08T08:18:24.417Z,7.62
2023-04-08T08:20:50.882Z,7.73
2023-04-08T08:23:17.278Z,7.76
2023-04-08T08:25:43.895Z,7.82
2023-04-08T08:28:10.476Z,7.91
2023-04-08T08:30:38.369Z,8.01
2023-04-08T08:33:04.790Z,8.12
2023-04-08T08:35:31.431Z,8.15
2023-04-08T08:37:57.911Z,8.23
2023-04-08T08:40:24.328Z,8.31
2023-04-08T08:42:52.404Z,8.36
2023-04-08T08:45:22.024Z,8.41
2023-04-08T08:47:50.835Z,8.53
2023-04-08T08:50:18.021Z,8.66
2023-04-08T08:52:51.521Z,8.74
2023-04-08T08:55:41.296Z,8.85
2023-04-08T08:58:08.450Z,8.93
2023-04-08T09:00:39.287Z,8.99
2023-04-08T09:03:28.893Z,9.12
2023-04-08T09:05:57.698Z,9.18
2023-04-08T09:08:31.988Z,9.28
2023-04-08T09:11:17.785Z,9.39
2023-04-08T09:13:46.286Z,9.47
2023-04-08T09:16:16.628Z,9.60
2023-04-08T09:18:44.974Z,9.70
2023-04-08T09:21:12.691Z,9.79
2023-04-08T09:23:46.477Z,9.90
2023-04-08T09:26:14.039Z,9.97
2023-04-08T09:28:42.105Z,10.05
2023-04-08T09:31:19.577Z,10.12
2023-04-08T09:33:47.451Z,10.21
2023-04-08T09:36:15.518Z,10.29
2023-04-08T09:38:42.658Z,10.41
2023-04-08T09:41:12.998Z,10.52
2023-04-08T09:43:50.681Z,10.65
2023-04-08T09:46:24.523Z,10.72
2023-04-08T09:49:01.209Z,10.84
2023-04-08T09:51:33.172Z,10.86
2023-04-08T09:54:02.660Z,10.87
2023-04-08T09:56:41.679Z,10.99
2023-04-08T09:59:14.906Z,11.18
2023-04-08T10:01:46.379Z,11.26
2023-04-08T10:04:17.331Z,11.38
2023-04-08T10:06:43.890Z,11.46
2023-04-08T10:09:10.753Z,11.58
2023-04-08T10:11:37.404Z,11.68
2023-04-08T10:14:04.072Z,11.78
2023-04-08T10:16:31.137Z,11.84
2023-04-08T10:18:58.113Z,12.00
2023-04-08T10:21:48.082Z,12.05
2023-04-08T10:24:14.525Z,12.10
2023-04-08T10:26:42.928Z,12.20
2023-04-08T10:29:32.896Z,12.29
2023-04-08T10:31:59.698Z,12.39
2023-04-08T10:34:27.586Z,12.56
2023-04-08T10:36:56.650Z,12.74
2023-04-08T10:39:23.217Z,12.83
2023-04-08T10:41:50.946Z,12.98
2023-04-08T10:44:18.173Z,13.12
2023-04-08T10:46:46.766Z,13.22
2023-04-08T10:49:14.144Z,13.25
2023-04-08T10:51:41.625Z,13.34
2023-04-08T10:54:09.795Z,13.49
2023-04-08T10:56:43.680Z,13.48
2023-04-08T10:59:11.090Z,13.60
2023-04-08T11:01:41.903Z,13.68
2023-04-08T11:04:15.958Z,13.68
2023-04-08T11:06:44.008Z,13.74
2023-04-08T11:09:10.976Z,13.75
2023-04-08T11:11:37.937Z,13.87
2023-04-08T11:14:05.660Z,13.91
2023-04-08T11:16:32.656Z,13.86
2023-04-08T11:18:59.686Z,14.00
2023-04-08T11:21:29.555Z,14.04
2023-04-08T11:23:56.402Z,14.14
2023-04-08T11:26:23.521Z,14.23
2023-04-08T11:28:51.641Z,14.39
2023-04-08T11:31:20.640Z,14.47
2023-04-08T11:33:50.252Z,14.58
2023-04-08T11:36:21.593Z,14.70
2023-04-08T11:38:48.233Z,14.63
2023-04-08T11:41:14.904Z,14.61
2023-04-08T11:43:54.704Z,14.63
2023-04-08T11:46:21.484Z,14.66
2023-04-08T11:49:08.618Z,14.93
2023-04-08T11:51:53.494Z,15.15
2023-04-08T11:54:27.704Z,15.26
2023-04-08T11:56:54.261Z,15.29
2023-04-08T11:59:20.618Z,15.36
2023-04-08T12:01:47.225Z,15.32
2023-04-08T12:04:13.846Z,15.35
2023-04-08T12:06:43.424Z,15.40
2023-04-08T12:09:10.049Z,15.51
2023-04-08T12:11:36.718Z,15.61
2023-04-08T12:14:03.174Z,15.77
2023-04-08T12:16:29.799Z,15.84
2023-04-08T12:18:56.300Z,15.74
2023-04-08T12:21:22.837Z,15.79
2023-04-08T12:23:49.539Z,15.97
2023-04-08T12:26:16.180Z,15.85
2023-04-08T12:28:42.726Z,15.72
2023-04-08T12:31:09.181Z,15.70
2023-04-08T12:33:36.699Z,15.78
2023-04-08T12:36:03.507Z,15.81
2023-04-08T12:38:29.939Z,15.76
2023-04-08T12:40:56.470Z,16.02
2023-04-08T12:43:23.811Z,16.05
2023-04-08T12:45:50.800Z,16.00
2023-04-08T12:48:17.321Z,15.86
2023-04-08T12:50:44.064Z,15.73
2023-04-08T12:53:11.111Z,15.79
2023-04-08T12:55:37.654Z,15.64
2023-04-08T12:58:05.522Z,15.57
2023-04-08T13:00:32.351Z,15.58
2023-04-08T13:02:58.976Z,15.60
2023-04-08T13:05:33.156Z,15.59
2023-04-08T13:08:09.753Z,15.61
2023-04-08T13:10:36.339Z,15.77
2023-04-08T13:13:02.772Z,15.99
2023-04-08T13:15:29.141Z,16.19
2023-04-08T13:17:56.085Z,16.26
2023-04-08T13:20:25.881Z,16.35
2023-04-08T13:22:55.599Z,16.39
2023-04-08T13:25:22.235Z,16.35
2023-04-08T13:27:48.713Z,16.49
2023-04-08T13:30:15.534Z,16.84
2023-04-08T13:32:42.187Z,16.82
2023-04-08T13:35:09.246Z,17.11
2023-04-08T13:37:36.091Z,17.52
2023-04-08T13:40:03.498Z,17.56
2023-04-08T13:42:33.122Z,17.64
2023-04-08T13:44:59.957Z,17.54
2023-04-08T13:47:27.200Z,17.63
2023-04-08T13:49:54.015Z,17.88
2023-04-08T13:52:20.545Z,17.82
2023-04-08T13:54:47.045Z,17.63
2023-04-08T13:57:13.663Z,17.46
2023-04-08T13:59:40.933Z,17.24
2023-04-08T14:02:08.621Z,17.31
2023-04-08T14:04:35.262Z,17.17
2023-04-08T14:07:01.847Z,16.95
2023-04-08T14:09:28.281Z,16.78
2023-04-08T14:11:54.691Z,16.79
2023-04-08T14:14:21.208Z,17.14
2023-04-08T14:16:48.314Z,17.43
2023-04-08T14:19:14.803Z,17.42
2023-04-08T14:21:41.388Z,17.42
2023-04-08T14:24:07.936Z,17.58
2023-04-08T14:26:36.046Z,17.93
2023-04-08T14:29:04.682Z,18.30
2023-04-08T14:31:32.423Z,18.47
2023-04-08T14:33:59.688Z,18.58
2023-04-08T14:36:39.081Z,18.48
2023-04-08T14:39:05.748Z,18.22
2023-04-08T14:41:32.261Z,18.22
2023-04-08T14:43:58.765Z,17.96
2023-04-08T14:46:28.893Z,17.70
2023-04-08T14:48:55.852Z,17.62
2023-04-08T14:51:22.272Z,17.49
2023-04-08T14:53:48.812Z,17.23
2023-04-08T14:56:15.422Z,17.31
2023-04-08T14:58:41.876Z,17.67
2023-04-08T15:01:08.322Z,18.14
2023-04-08T15:03:34.937Z,18.43
2023-04-08T15:06:01.876Z,18.82
2023-04-08T15:08:28.763Z,18.91
2023-04-08T15:10:55.578Z,19.08
2023-04-08T15:13:22.972Z,19.15
2023-04-08T15:15:49.610Z,19.36
2023-04-08T15:18:16.258Z,19.45
2023-04-08T15:20:42.757Z,19.55
2023-04-08T15:23:09.272Z,19.33
2023-04-08T15:25:35.836Z,19.08
2023-04-08T15:28:02.708Z,18.96
2023-04-08T15:30:34.972Z,18.60
2023-04-08T15:33:04.893Z,18.22
2023-04-08T15:35:32.833Z,17.96
2023-04-08T15:38:00.450Z,17.85
2023-04-08T15:40:27.103Z,17.68
2023-04-08T15:42:53.709Z,17.60
2023-04-08T15:45:20.637Z,17.51
2023-04-08T15:47:47.094Z,17.40
2023-04-08T15:50:14.872Z,17.36
2023-04-08T15:52:41.847Z,17.49
2023-04-08T15:55:08.642Z,17.65
2023-04-08T15:57:36.542Z,17.62
2023-04-08T16:00:10.722Z,17.46
2023-04-08T16:02:37.624Z,17.34
2023-04-08T16:05:04.470Z,17.13
2023-04-08T16:07:31.229Z,16.74
2023-04-08T16:09:58.994Z,16.43
2023-04-08T16:12:25.792Z,16.28
2023-04-08T16:14:52.407Z,16.08
2023-04-08T16:17:18.896Z,15.91
2023-04-08T16:19:45.322Z,15.73
2023-04-08T16:22:11.758Z,15.58
2023-04-08T16:24:38.240Z,15.51
2023-04-08T16:27:05.477Z,15.45
2023-04-08T16:29:32.593Z,15.41
2023-04-08T16:31:59.065Z,15.61
2023-04-08T16:34:25.441Z,16.28
2023-04-08T16:36:51.949Z,16.96
2023-04-08T16:39:18.368Z,17.49
2023-04-08T16:41:45.101Z,18.04
2023-04-08T16:44:11.639Z,18.44
2023-04-08T16:46:38.371Z,18.63
2023-04-08T16:49:04.859Z,18.94
2023-04-08T16:51:31.308Z,19.23
2023-04-08T16:53:59.194Z,19.45
2023-04-08T16:56:27.003Z,19.46
2023-04-08T16:58:53.431Z,19.47
2023-04-08T17:01:20.466Z,19.50
2023-04-08T17:03:48.677Z,19.55
2023-04-08T17:06:15.310Z,19.48
2023-04-08T17:08:44.792Z,19.21
2023-04-08T17:11:14.750Z,18.51
2023-04-08T17:13:42.905Z,18.08
2023-04-08T17:16:14.993Z,17.56
2023-04-08T17:18:42.252Z,17.14
2023-04-08T17:21:08.811Z,16.84
2023-04-08T17:23:35.344Z,16.62
2023-04-08T17:26:09.283Z,16.40
2023-04-08T17:28:36.357Z,16.20
2023-04-08T17:31:02.988Z,15.93
2023-04-08T17:33:29.574Z,15.81
2023-04-08T17:35:56.149Z,15.56
2023-04-08T17:38:22.753Z,15.25
2023-04-08T17:40:49.281Z,14.83
2023-04-08T17:43:15.868Z,14.53
2023-04-08T17:45:42.399Z,14.20
2023-04-08T17:48:09.842Z,13.93
2023-04-08T17:50:36.685Z,13.76
2023-04-08T17:53:03.237Z,13.54
2023-04-08T17:55:29.747Z,13.44
2023-04-08T17:57:56.254Z,13.30
2023-04-08T18:00:22.932Z,13.14
2023-04-08T18:02:50.367Z,12.97
2023-04-08T18:05:16.906Z,12.93
2023-04-08T18:07:43.431Z,12.79
2023-04-08T18:10:10.061Z,12.73
2023-04-08T18:12:37.113Z,12.62
2023-04-08T18:15:03.738Z,12.59
2023-04-08T18:17:30.361Z,12.57
2023-04-08T18:19:58.352Z,12.48
2023-04-08T18:22:24.816Z,12.44
2023-04-08T18:24:51.266Z,12.44
2023-04-08T18:27:17.712Z,12.41
2023-04-08T18:29:44.119Z,12.34
2023-04-08T18:32:10.595Z,12.32
2023-04-08T18:34:37.157Z,12.34
2023-04-08T18:37:04.066Z,12.36
2023-04-08T18:39:30.643Z,12.31
2023-04-08T18:41:57.292Z,12.31
2023-04-08T18:44:23.780Z,12.31
2023-04-08T18:46:50.266Z,12.29
2023-04-08T18:49:16.725Z,12.27
2023-04-08T18:51:58.927Z,12.25
2023-04-08T18:54:28.167Z,12.25
2023-04-08T18:56:54.657Z,12.30
2023-04-08T18:59:21.084Z,12.29
2023-04-08T19:01:48.641Z,12.22
2023-04-08T19:04:15.316Z,12.24
2023-04-08T19:06:42.646Z,12.22
2023-04-08T19:09:09.169Z,12.22
2023-04-08T19:11:35.709Z,12.21
2023-04-08T19:14:02.187Z,12.19
2023-04-08T19:16:28.649Z,12.20
2023-04-08T19:18:55.120Z,12.22
2023-04-08T19:21:22.029Z,12.19
2023-04-08T19:23:49.239Z,12.15
2023-04-08T19:26:16.246Z,12.11
2023-04-08T19:28:42.792Z,12.11
2023-04-08T19:31:20.232Z,12.09
2023-04-08T19:33:47.014Z,12.03
2023-04-08T19:36:13.570Z,11.93
2023-04-08T19:38:40.250Z,11.88
2023-04-08T19:41:06.944Z,11.81
2023-04-08T19:43:33.462Z,11.75
2023-04-08T19:45:59.943Z,11.72
2023-04-08T19:48:26.735Z,11.66
2023-04-08T19:50:53.154Z,11.58
2023-04-08T19:53:19.718Z,11.52
2023-04-08T19:55:46.247Z,11.45
2023-04-08T19:58:12.859Z,11.36
2023-04-08T20:00:40.083Z,11.27
2023-04-08T20:03:07.785Z,11.24
2023-04-08T20:05:34.633Z,11.16
2023-04-08T20:08:01.070Z,11.08
2023-04-08T20:10:27.543Z,11.00
2023-04-08T20:12:54.248Z,10.92
2023-04-08T20:15:25.211Z,10.86
2023-04-08T20:17:53.113Z,10.78
2023-04-08T20:20:19.937Z,10.70
2023-04-08T20:22:46.614Z,10.63
2023-04-08T20:25:13.315Z,10.59
2023-04-08T20:27:39.774Z,10.50
2023-04-08T20:30:07.097Z,10.42
2023-04-08T20:32:34.698Z,10.36
2023-04-08T20:35:01.479Z,10.31
2023-04-08T20:37:28.701Z,10.29
2023-04-08T20:39:55.156Z,10.24
2023-04-08T20:42:21.689Z,10.18
2023-04-08T20:44:48.096Z,10.14
2023-04-08T20:47:14.584Z,10.09
2023-04-08T20:49:42.129Z,10.04
2023-04-08T20:52:08.571Z,9.97
2023-04-08T20:54:34.998Z,9.93
2023-04-08T20:57:01.593Z,9.89
2023-04-08T20:59:28.170Z,9.80
2023-04-08T21:01:54.699Z,9.74
2023-04-08T21:04:22.379Z,9.67
2023-04-08T21:06:48.995Z,9.63
2023-04-08T21:09:15.762Z,9.58
2023-04-08T21:11:42.370Z,9.57
2023-04-08T21:14:08.802Z,9.55
2023-04-08T21:16:35.343Z,9.55
2023-04-08T21:19:01.992Z,9.52
2023-04-08T21:21:28.536Z,9.46
2023-04-08T21:23:55.018Z,9.45
2023-04-08T21:26:22.138Z,9.41
2023-04-08T21:28:49.915Z,9.39
2023-04-08T21:31:16.640Z,9.38
2023-04-08T21:33:43.067Z,9.34
2023-04-08T21:36:09.724Z,9.32
2023-04-08T21:38:36.213Z,9.30
2023-04-08T21:41:02.781Z,9.23
2023-04-08T21:43:29.363Z,9.20
2023-04-08T21:45:55.880Z,9.14
2023-04-08T21:48:23.369Z,9.12
2023-04-08T21:50:49.824Z,9.12
2023-04-08T21:53:16.691Z,9.07
2023-04-08T21:55:43.136Z,8.95
2023-04-08T21:58:12.164Z,8.86
2023-04-08T22:00:39.039Z,8.82
2023-04-08T22:03:06.924Z,8.80
2023-04-08T22:05:33.555Z,8.78
2023-04-08T22:08:01.140Z,8.79
2023-04-08T22:10:27.704Z,8.79
2023-04-08T22:12:54.164Z,8.80
2023-04-08T22:15:20.775Z,8.82
2023-04-08T22:17:47.198Z,8.85
2023-04-08T22:20:13.697Z,8.91
2023-04-08T22:22:40.106Z,8.96
2023-04-08T22:25:07.145Z,9.01
2023-04-08T22:27:33.671Z,9.05
2023-04-08T22:30:00.222Z,9.08
2023-04-08T22:32:26.712Z,9.10
2023-04-08T22:34:53.171Z,9.10
2023-04-08T22:37:19.665Z,9.13
2023-04-08T22:39:46.164Z,9.16
2023-04-08T22:42:12.615Z,9.18
2023-04-08T22:44:39.172Z,9.20
2023-04-08T22:47:05.595Z,9.22
2023-04-08T22:49:31.964Z,9.26
2023-04-08T22:51:58.362Z,9.28
2023-04-08T22:54:24.841Z,9.28
2023-04-08T22:56:51.345Z,9.32
2023-04-08T22:59:17.769Z,9.34
2023-04-08T23:01:45.120Z,9.36
2023-04-08T23:04:11.586Z,9.38
2023-04-08T23:06:38.018Z,9.39
2023-04-08T23:09:04.507Z,9.39
2023-04-08T23:11:30.955Z,9.40
2023-04-08T23:13:57.385Z,9.44
2023-04-08T23:16:23.817Z,9.46
2023-04-08T23:18:50.519Z,9.46
2023-04-08T23:21:17.170Z,9.47
2023-04-08T23:23:43.585Z,9.48
2023-04-08T23:26:21.263Z,9.52
2023-04-08T23:28:47.874Z,9.54
2023-04-08T23:31:14.280Z,9.54
2023-04-08T23:33:40.935Z,9.54
2023-04-08T23:36:09.657Z,9.54
2023-04-08T23:38:37.095Z,9.55
2023-04-08T23:41:04.599Z,9.55
2023-04-08T23:43:31.125Z,9.54
2023-04-08T23:45:57.710Z,9.53
2023-04-08T23:48:24.300Z,9.54
2023-04-08T23:50:55.009Z,9.56
2023-04-08T23:53:21.920Z,9.56
2023-04-08T23:55:48.608Z,9.58
2023-04-08T23:58:15.563Z,9.59
